Time;durP1;ratioP1;P1;durP2;ratioP2;P2;SDS_P1;SDS_P2;PMS_P1;PMS_P2;Temp;Humidity;BMP_temperature;BMP_pressure;BME280_temperature;BME280_humidity;BME280_pressure;Samples;Min_cycle;Max_cycle;Signal;HPM_P1;HPM_P2
2024/04/04 00:00:24;;;;;;;8.30;1.60;;;;;10.00;100164.00;;;;10366931;28;20692;-81
2024/04/04 00:05:28;;;;;;;2.80;1.20;;;;;10.10;100163.00;;;;10364684;28;20222;-81
2024/04/04 00:10:29;;;;;;;7.33;1.53;;;;;10.10;100160.00;;;;10373037;28;20242;-80
2024/04/04 00:15:30;;;;;;;8.33;1.40;;;;;10.10;100164.00;;;;10368212;28;20665;-81
2024/04/04 00:20:31;;;;;;;3.87;1.10;;;;;10.00;100163.00;;;;10373202;28;20276;-79
2024/04/04 00:25:33;;;;;;;4.20;1.20;;;;;9.90;100151.00;;;;10378051;28;20313;-79
2024/04/04 00:30:34;;;;;;;5.47;1.37;;;;;9.90;100132.00;;;;10366414;28;20234;-79
2024/04/04 00:35:35;;;;;;;3.00;1.23;;;;;10.00;100117.00;;;;10385440;28;20248;-83
2024/04/04 00:40:39;;;;;;;4.07;1.80;;;;;10.10;100115.00;;;;10365673;28;20957;-79
2024/04/04 00:45:40;;;;;;;5.57;1.10;;;;;10.10;100110.00;;;;10369297;28;20218;-78
2024/04/04 00:50:42;;;;;;;4.80;1.33;;;;;10.10;100104.00;;;;10381211;28;20230;-81
2024/04/04 00:55:46;;;;;;;2.93;1.13;;;;;10.10;100095.00;;;;10380063;28;20226;-81
2024/04/04 01:00:47;;;;;;;4.53;1.00;;;;;10.10;100090.00;;;;10387289;28;20222;-80
2024/04/04 01:05:48;;;;;;;4.40;1.67;;;;;10.20;100080.00;;;;10373984;28;20222;-82
2024/04/04 01:10:49;;;;;;;7.30;2.33;;;;;10.20;100074.00;;;;10381515;28;20226;-81
2024/04/04 01:15:50;;;;;;;4.23;1.30;;;;;10.30;100068.00;;;;10381539;28;20234;-81
2024/04/04 01:20:51;;;;;;;4.67;0.93;;;;;10.30;100061.00;;;;10355655;28;20226;-80
2024/04/04 01:25:52;;;;;;;4.70;1.47;;;;;10.40;100054.00;;;;10371438;28;20217;-81
2024/04/04 01:30:53;;;;;;;4.10;1.00;;;;;10.50;100037.00;;;;10369256;28;20228;-81
2024/04/04 01:35:54;;;;;;;4.63;1.53;;;;;10.50;100033.00;;;;10371618;28;20268;-81
2024/04/04 01:40:55;;;;;;;3.93;1.17;;;;;10.50;100021.00;;;;10376474;28;20221;-82
2024/04/04 01:45:55;;;;;;;3.27;0.90;;;;;10.50;100018.00;;;;10370773;28;20272;-82
2024/04/04 01:50:56;;;;;;;5.53;1.50;;;;;10.60;100012.00;;;;10389154;28;20226;-81
2024/04/04 01:55:59;;;;;;;4.97;1.20;;;;;10.60;100020.00;;;;10365707;28;20225;-81
2024/04/04 02:00:59;;;;;;;2.87;0.90;;;;;10.70;100006.00;;;;10383566;28;20302;-81
2024/04/04 02:06:01;;;;;;;3.57;1.47;;;;;10.70;99984.00;;;;10355185;28;20225;-80
2024/04/04 02:11:03;;;;;;;5.77;1.70;;;;;10.70;99981.00;;;;10355539;28;20218;-80
2024/04/04 02:16:04;;;;;;;7.43;1.80;;;;;10.80;99968.00;;;;10371416;28;20229;-81
2024/04/04 02:21:05;;;;;;;4.70;1.50;;;;;10.90;99957.00;;;;10355431;28;20869;-82
2024/04/04 02:26:06;;;;;;;6.70;2.10;;;;;11.00;99956.00;;;;10377903;28;20286;-83
2024/04/04 02:31:07;;;;;;;7.07;2.03;;;;;11.00;99950.00;;;;10384060;28;20307;-82
2024/04/04 02:36:08;;;;;;;7.00;2.00;;;;;11.10;99936.00;;;;10383107;28;20233;-82
2024/04/04 02:41:10;;;;;;;9.63;2.07;;;;;11.10;99928.00;;;;10353640;28;20225;-82
2024/04/04 02:46:10;;;;;;;10.43;2.03;;;;;11.10;99934.00;;;;10374336;28;20296;-81
2024/04/04 02:51:12;;;;;;;7.77;2.00;;;;;11.10;99924.00;;;;10382388;28;20218;-82
2024/04/04 02:56:13;;;;;;;4.80;1.93;;;;;11.30;99906.00;;;;10378594;28;20224;-81
2024/04/04 03:01:14;;;;;;;7.43;2.63;;;;;11.40;99910.00;;;;10391595;28;20229;-82
2024/04/04 03:06:18;;;;;;;5.53;2.63;;;;;11.50;99901.00;;;;10363662;28;20221;-81
2024/04/04 03:11:19;;;;;;;8.70;2.23;;;;;11.50;99900.00;;;;10388229;28;20574;-85
2024/04/04 03:16:35;;;;;;;13.03;2.93;;;;;11.50;99891.00;;;;10472320;23;20276;31
2024/04/04 03:21:36;;;;;;;10.47;2.73;;;;;11.50;99882.00;;;;10167044;28;20289;-88
2024/04/04 03:26:37;;;;;;;14.13;2.90;;;;;11.50;99887.00;;;;10165390;28;20221;-87
2024/04/04 03:31:39;;;;;;;9.00;2.50;;;;;11.50;99884.00;;;;10194053;28;20230;-88
2024/04/04 03:36:41;;;;;;;9.73;2.00;;;;;11.50;99871.00;;;;10214311;28;20355;-91
2024/04/04 03:41:42;;;;;;;8.77;2.00;;;;;11.60;99868.00;;;;10207471;28;20209;-89
2024/04/04 03:46:43;;;;;;;7.47;2.47;;;;;11.60;99875.00;;;;10216851;28;20282;-87
2024/04/04 03:51:44;;;;;;;13.50;3.40;;;;;11.60;99863.00;;;;10204125;28;20240;-88
2024/04/04 03:56:45;;;;;;;12.93;2.80;;;;;11.70;99863.00;;;;10195128;28;20300;-88
2024/04/04 04:01:46;;;;;;;7.37;2.07;;;;;11.70;99857.00;;;;10193138;28;20316;-87
2024/04/04 04:06:48;;;;;;;7.90;2.37;;;;;11.70;99839.00;;;;10193714;28;20289;-84
2024/04/04 04:11:49;;;;;;;16.77;2.60;;;;;11.70;99856.00;;;;10207915;28;20287;-84
2024/04/04 04:16:50;;;;;;;12.87;2.63;;;;;11.70;99853.00;;;;10192414;28;20233;-83
2024/04/04 04:21:51;;;;;;;12.10;3.00;;;;;11.70;99854.00;;;;10209546;28;20232;-78
2024/04/04 04:26:53;;;;;;;8.00;2.10;;;;;11.70;99835.00;;;;10231488;28;20273;-78
2024/04/04 04:31:56;;;;;;;9.27;2.20;;;;;11.70;99833.00;;;;10246919;28;20247;-79
2024/04/04 04:37:05;;;;;;;8.20;1.63;;;;;11.70;99829.00;;;;10229450;28;20217;-79
2024/04/04 04:42:06;;;;;;;5.60;1.90;;;;;11.70;99836.00;;;;10231318;28;20775;-79
2024/04/04 04:47:07;;;;;;;8.20;2.20;;;;;11.70;99819.00;;;;10226989;28;20227;-80
2024/04/04 04:52:08;;;;;;;6.57;2.00;;;;;11.70;99819.00;;;;10246817;28;20253;-79
2024/04/04 04:57:09;;;;;;;6.20;2.17;;;;;11.60;99797.00;;;;10259362;28;20220;-79
2024/04/04 05:02:10;;;;;;;6.33;2.00;;;;;11.60;99802.00;;;;10230345;28;20248;-79
2024/04/04 05:07:12;;;;;;;8.27;1.93;;;;;11.60;99801.00;;;;10215105;28;20227;-79
2024/04/04 05:12:13;;;;;;;4.63;1.80;;;;;11.70;99805.00;;;;10262159;28;20227;-80
2024/04/04 05:17:14;;;;;;;9.47;1.70;;;;;11.70;99811.00;;;;10246619;28;20248;-80
2024/04/04 05:22:15;;;;;;;6.80;2.20;;;;;11.70;99807.00;;;;10243523;28;20217;-79
2024/04/04 05:27:16;;;;;;;8.43;2.10;;;;;11.70;99807.00;;;;10238844;28;20220;-79
2024/04/04 05:32:17;;;;;;;8.97;1.80;;;;;11.70;99803.00;;;;10247299;28;20728;-77
2024/04/04 05:37:18;;;;;;;5.30;1.53;;;;;11.70;99805.00;;;;10245824;28;20299;-77
2024/04/04 05:42:19;;;;;;;3.03;1.53;;;;;11.70;99808.00;;;;10229201;28;20225;-78
2024/04/04 05:47:20;;;;;;;9.17;2.33;;;;;11.80;99820.00;;;;10195126;28;21839;-78
2024/04/04 05:52:21;;;;;;;4.97;1.43;;;;;11.80;99826.00;;;;10249257;28;20893;-78
2024/04/04 05:57:23;;;;;;;4.23;1.70;;;;;11.70;99818.00;;;;10243150;28;20580;-78
2024/04/04 06:02:24;;;;;;;6.10;1.60;;;;;11.70;99829.00;;;;10258806;28;20224;-79
2024/04/04 06:07:25;;;;;;;6.17;1.77;;;;;11.70;99833.00;;;;10225661;28;20228;-79
2024/04/04 06:12:26;;;;;;;5.93;1.53;;;;;11.70;99829.00;;;;10201262;28;20224;-78
2024/04/04 06:17:26;;;;;;;2.40;1.30;;;;;11.70;99805.00;;;;10229776;28;20220;-77
2024/04/04 06:22:27;;;;;;;3.37;1.20;;;;;11.70;99808.00;;;;10231480;28;20261;-80
2024/04/04 06:27:28;;;;;;;2.53;1.03;;;;;11.70;99822.00;;;;10265811;28;21397;-79
2024/04/04 06:32:29;;;;;;;3.50;1.07;;;;;11.70;99803.00;;;;10240288;28;20221;-79
2024/04/04 06:37:31;;;;;;;7.37;1.20;;;;;11.70;99796.00;;;;10247560;28;20756;-78
2024/04/04 06:42:32;;;;;;;1.80;1.10;;;;;11.70;99785.00;;;;10235271;28;20230;-82
2024/04/04 06:47:33;;;;;;;4.47;1.30;;;;;11.70;99791.00;;;;10231556;28;20231;-82
2024/04/04 06:52:34;;;;;;;3.40;1.33;;;;;11.90;99801.00;;;;10245059;28;20212;-83
2024/04/04 06:57:34;;;;;;;3.23;1.00;;;;;11.90;99804.00;;;;10236402;28;20672;-84
2024/04/04 07:02:35;;;;;;;5.57;2.00;;;;;11.80;99821.00;;;;10229164;28;20229;-82
2024/04/04 07:07:37;;;;;;;9.53;4.67;;;;;11.90;99826.00;;;;10266152;28;20227;-84
2024/04/04 07:12:38;;;;;;;4.37;1.73;;;;;12.00;99839.00;;;;10231439;28;20212;-85
2024/04/04 07:17:39;;;;;;;6.47;1.50;;;;;12.10;99854.00;;;;10227588;28;20225;-84
2024/04/04 07:22:40;;;;;;;3.40;1.63;;;;;12.20;99867.00;;;;10249496;28;20635;-82
2024/04/04 07:27:41;;;;;;;5.30;2.10;;;;;12.30;99853.00;;;;10253611;28;20228;-84
2024/04/04 07:32:42;;;;;;;4.53;2.00;;;;;12.30;99870.00;;;;10251120;28;20303;-83
2024/04/04 07:37:43;;;;;;;5.37;1.20;;;;;12.30;99873.00;;;;10230906;28;20231;-82
2024/04/04 07:42:46;;;;;;;2.90;0.90;;;;;12.20;99884.00;;;;10251215;28;20240;-83
2024/04/04 07:47:47;;;;;;;2.40;0.90;;;;;12.40;99880.00;;;;10227183;28;20213;-84
2024/04/04 07:52:48;;;;;;;7.10;2.60;;;;;12.50;99879.00;;;;10233619;28;20228;-80
2024/04/04 07:57:49;;;;;;;1.60;1.20;;;;;12.50;99880.00;;;;10265057;28;20232;-78
2024/04/04 08:02:50;;;;;;;4.37;1.00;;;;;12.60;99888.00;;;;10251212;28;20259;-78
2024/04/04 08:07:52;;;;;;;1.73;0.63;;;;;12.50;99889.00;;;;10232706;28;20228;-77
2024/04/04 08:12:53;;;;;;;4.67;1.10;;;;;12.50;99898.00;;;;10280178;28;20224;-77
2024/04/04 08:17:54;;;;;;;4.53;1.13;;;;;12.80;99909.00;;;;10215961;28;20797;-77
2024/04/04 08:22:55;;;;;;;3.17;0.70;;;;;13.00;99902.00;;;;10212314;28;20235;-78
2024/04/04 08:27:56;;;;;;;2.37;0.90;;;;;13.20;99917.00;;;;10243963;28;20231;-79
2024/04/04 08:32:58;;;;;;;3.88;1.10;;;;;13.10;99914.00;;;;10241765;28;20217;-77
2024/04/04 08:37:58;;;;;;;2.03;0.65;;;;;13.30;99919.00;;;;10241087;28;20231;-78
2024/04/04 08:43:01;;;;;;;7.07;2.20;;;;;13.60;99941.00;;;;10226698;28;20235;-78
2024/04/04 08:48:03;;;;;;;2.50;1.20;;;;;13.90;99939.00;;;;10229386;28;20235;-80
2024/04/04 08:53:05;;;;;;;3.75;1.33;;;;;14.90;99942.00;;;;10211245;28;20220;-78
2024/04/04 08:58:08;;;;;;;2.88;0.80;;;;;14.80;99963.00;;;;10242454;28;21398;-79
2024/04/04 09:03:10;;;;;;;4.05;1.08;;;;;14.50;99968.00;;;;10207424;28;20575;-78
2024/04/04 09:08:11;;;;;;;2.70;0.70;;;;;14.30;99975.00;;;;10241818;28;20213;-79
2024/04/04 09:13:12;;;;;;;3.80;0.90;;;;;14.60;99967.00;;;;10242447;28;21046;-79
2024/04/04 09:18:13;;;;;;;1.08;0.77;;;;;15.30;99971.00;;;;10217342;28;20225;-79
2024/04/04 09:23:14;;;;;;;3.47;0.65;;;;;15.20;99980.00;;;;10216041;28;20277;-80
2024/04/04 09:28:19;;;;;;;3.10;0.70;;;;;14.60;99979.00;;;;10226316;28;20232;-79
2024/04/04 09:33:21;;;;;;;1.95;0.60;;;;;14.20;99988.00;;;;10227504;28;20566;-79
2024/04/04 09:38:22;;;;;;;1.10;0.73;;;;;14.10;99982.00;;;;10225126;28;21007;-80
2024/04/04 09:43:26;;;;;;;1.65;0.85;;;;;14.10;99978.00;;;;10258311;28;20221;-79
2024/04/04 09:48:27;;;;;;;3.17;0.60;;;;;14.70;99984.00;;;;10241123;28;20212;-80
2024/04/04 09:53:30;;;;;;;0.98;0.70;;;;;15.30;99982.00;;;;10240180;28;20280;-79
2024/04/04 09:58:35;;;;;;;2.65;0.82;;;;;16.00;99988.00;;;;10239994;28;20228;-81
2024/04/04 10:03:37;;;;;;;4.10;0.90;;;;;16.70;99982.00;;;;10224817;28;20225;-78
2024/04/04 10:08:38;;;;;;;3.40;1.00;;;;;16.40;99998.00;;;;10232415;28;20558;-80
2024/04/04 10:13:48;;;;;;;4.47;1.05;;;;;16.00;100004.00;;;;10220868;28;20227;-77
2024/04/04 10:18:49;;;;;;;8.25;1.58;;;;;16.90;100011.00;;;;10225504;28;20339;-78
2024/04/04 10:23:53;;;;;;;4.07;1.65;;;;;16.90;100030.00;;;;10206204;28;20220;-78
2024/04/04 10:28:54;;;;;;;3.42;1.30;;;;;16.70;100026.00;;;;10207790;28;20224;-77
2024/04/04 10:34:02;;;;;;;2.58;1.33;;;;;18.30;100033.00;;;;10244805;28;20231;-78
2024/04/04 10:39:12;;;;;;;7.28;1.63;;;;;17.40;100036.00;;;;10253915;28;20632;-78
2024/04/04 10:44:15;;;;;;;6.25;2.22;;;;;17.10;100033.00;;;;10220472;28;20589;-77
2024/04/04 10:49:18;;;;;;;5.03;1.50;;;;;17.10;100042.00;;;;10208980;28;20317;-78
2024/04/04 10:54:20;;;;;;;5.80;1.58;;;;;17.10;100041.00;;;;10229952;28;20280;-81
2024/04/04 10:59:21;;;;;;;3.83;1.50;;;;;16.90;100044.00;;;;10230792;28;20229;-78
2024/04/04 11:04:24;;;;;;;7.82;2.40;;;;;17.20;100031.00;;;;10203892;28;20212;-79
2024/04/04 11:09:26;;;;;;;6.70;2.00;;;;;19.50;100042.00;;;;10225257;28;20225;-78
2024/04/04 11:14:27;;;;;;;8.20;2.90;;;;;19.30;100051.00;;;;10247503;28;20289;-80
2024/04/04 11:19:28;;;;;;;9.70;2.45;;;;;20.20;100047.00;;;;10231961;28;20765;-80
2024/04/04 11:24:29;;;;;;;11.02;2.47;;;;;21.00;100060.00;;;;10265246;28;20275;-82
2024/04/04 11:29:29;;;;;;;6.65;1.77;;;;;19.80;100052.00;;;;10219627;28;20220;-82
2024/04/04 11:34:30;;;;;;;9.02;2.38;;;;;19.20;100061.00;;;;10236610;28;20307;-83
2024/04/04 11:39:32;;;;;;;5.95;1.90;;;;;20.40;100053.00;;;;10229824;28;20239;-82
2024/04/04 11:44:33;;;;;;;8.18;2.13;;;;;20.30;100055.00;;;;10225088;28;20229;-81
2024/04/04 11:49:34;;;;;;;8.02;2.17;;;;;20.40;100074.00;;;;10247989;28;20217;-82
2024/04/04 11:54:35;;;;;;;6.63;2.30;;;;;20.40;100046.00;;;;10247905;28;20223;-81
2024/04/04 11:59:36;;;;;;;9.05;2.25;;;;;18.90;100066.00;;;;10243138;28;20224;-82
2024/04/04 12:04:41;;;;;;;10.85;2.53;;;;;18.40;100063.00;;;;10251099;28;20220;-82
2024/04/04 12:09:42;;;;;;;9.77;2.60;;;;;17.90;100076.00;;;;10229944;28;20697;-80
2024/04/04 12:14:44;;;;;;;13.63;3.20;;;;;19.10;100062.00;;;;10232720;28;20267;-80
2024/04/04 12:19:45;;;;;;;8.40;2.67;;;;;20.00;100068.00;;;;10254791;28;20616;-80
2024/04/04 12:24:46;;;;;;;10.65;2.70;;;;;20.20;100081.00;;;;10230746;28;20570;-80
2024/04/04 12:29:47;;;;;;;11.10;2.88;;;;;20.30;100087.00;;;;10225672;28;20221;-80
2024/04/04 12:34:48;;;;;;;14.05;2.90;;;;;20.60;100096.00;;;;10238493;28;20224;-80
2024/04/04 12:39:49;;;;;;;10.88;3.38;;;;;21.20;100108.00;;;;10214600;28;20730;-80
2024/04/04 12:44:50;;;;;;;11.40;3.03;;;;;21.00;100105.00;;;;10236447;28;20224;-82
2024/04/04 12:49:51;;;;;;;10.48;2.97;;;;;21.70;100093.00;;;;10223021;28;20315;-82
2024/04/04 12:54:52;;;;;;;14.52;3.33;;;;;21.60;100097.00;;;;10212008;28;21069;-81
2024/04/04 12:59:54;;;;;;;11.82;2.70;;;;;22.10;100098.00;;;;10245166;28;20213;-81
2024/04/04 13:04:55;;;;;;;11.93;3.15;;;;;22.00;100111.00;;;;10244139;28;20224;-81
2024/04/04 13:09:56;;;;;;;10.23;2.75;;;;;21.30;100119.00;;;;10248764;28;20225;-82
2024/04/04 13:14:57;;;;;;;10.65;2.78;;;;;20.20;100129.00;;;;10225052;28;20740;-81
2024/04/04 13:19:58;;;;;;;13.32;3.00;;;;;19.30;100150.00;;;;10227668;28;20226;-80
2024/04/04 13:24:59;;;;;;;8.95;2.65;;;;;19.80;100161.00;;;;10224239;28;20232;-81
2024/04/04 13:30:00;;;;;;;11.98;3.20;;;;;19.90;100155.00;;;;10218856;28;20217;-82
2024/04/04 13:35:02;;;;;;;11.48;2.60;;;;;20.20;100159.00;;;;10237507;28;20212;-82
2024/04/04 13:40:08;;;;;;;9.02;2.65;;;;;20.60;100155.00;;;;10238394;28;20813;-83
2024/04/04 13:45:10;;;;;;;11.15;2.95;;;;;20.50;100167.00;;;;10227914;28;20220;-82
2024/04/04 13:50:11;;;;;;;16.00;3.60;;;;;19.70;100172.00;;;;10227757;28;20767;-83
2024/04/04 13:55:12;;;;;;;10.68;3.33;;;;;19.60;100180.00;;;;10260444;28;20226;-83
2024/04/04 14:00:14;;;;;;;16.95;3.97;;;;;19.50;100180.00;;;;10244900;28;20275;-83
2024/04/04 14:05:15;;;;;;;13.85;2.70;;;;;19.00;100188.00;;;;10245014;28;20235;-83
2024/04/04 14:10:16;;;;;;;13.88;3.95;;;;;18.60;100179.00;;;;10242118;28;21063;-83
2024/04/04 14:15:17;;;;;;;14.45;3.15;;;;;18.50;100201.00;;;;10228817;28;20867;-82
2024/04/04 14:20:19;;;;;;;12.48;3.28;;;;;17.80;100230.00;;;;10226730;28;20220;-79
2024/04/04 14:25:20;;;;;;;11.40;3.47;;;;;16.90;100238.00;;;;10226700;28;20752;-79
2024/04/04 14:30:21;;;;;;;14.02;3.45;;;;;17.40;100224.00;;;;10242604;28;20252;-81
2024/04/04 14:35:23;;;;;;;15.30;3.42;;;;;18.20;100227.00;;;;10227615;28;20223;-81
2024/04/04 14:40:24;;;;;;;11.07;3.05;;;;;18.90;100227.00;;;;10241026;28;20272;-80
2024/04/04 14:45:25;;;;;;;13.90;3.30;;;;;19.60;100215.00;;;;10213288;28;20219;-80
2024/04/04 14:50:26;;;;;;;16.17;3.75;;;;;19.30;100227.00;;;;10233720;28;20222;-80
2024/04/04 14:55:27;;;;;;;19.88;3.35;;;;;18.00;100238.00;;;;10233112;28;20299;-79
2024/04/04 15:00:28;;;;;;;18.25;3.65;;;;;17.90;100228.00;;;;10228639;28;20224;-79
2024/04/04 15:05:29;;;;;;;20.17;4.07;;;;;18.70;100236.00;;;;10237256;28;20220;-78
2024/04/04 15:10:30;;;;;;;16.02;3.17;;;;;17.80;100254.00;;;;10230414;28;20233;-80
2024/04/04 15:15:31;;;;;;;27.55;3.97;;;;;17.80;100259.00;;;;10250677;28;20251;-78
2024/04/04 15:20:32;;;;;;;19.92;4.45;;;;;18.40;100263.00;;;;10246404;28;20230;-79
2024/04/04 15:25:36;;;;;;;18.10;4.28;;;;;19.20;100258.00;;;;10231049;28;20617;-79
2024/04/04 15:30:37;;;;;;;17.45;4.22;;;;;17.60;100276.00;;;;10220514;28;20665;-80
2024/04/04 15:35:40;;;;;;;19.40;4.85;;;;;17.20;100270.00;;;;10248529;28;20236;-79
2024/04/04 15:40:42;;;;;;;18.23;4.88;;;;;16.80;100283.00;;;;10231173;28;20258;-80
2024/04/04 15:45:43;;;;;;;21.48;3.80;;;;;16.80;100284.00;;;;10220692;28;20209;-80
2024/04/04 15:50:45;;;;;;;16.65;4.88;;;;;17.00;100296.00;;;;10247460;28;20236;-79
2024/04/04 15:55:47;;;;;;;22.05;5.40;;;;;16.60;100304.00;;;;10224668;28;20221;-80
2024/04/04 16:00:48;;;;;;;18.05;3.53;;;;;16.40;100311.00;;;;10224152;28;20710;-79
2024/04/04 16:05:49;;;;;;;19.02;4.25;;;;;16.10;100308.00;;;;10231787;28;20232;-80
2024/04/04 16:10:53;;;;;;;19.15;4.88;;;;;16.20;100311.00;;;;10212705;28;20860;-79
2024/04/04 16:15:54;;;;;;;19.80;4.38;;;;;16.10;100331.00;;;;10248912;28;20231;-79
2024/04/04 16:20:55;;;;;;;17.58;3.53;;;;;16.00;100335.00;;;;10227758;28;20218;-79
2024/04/04 16:26:00;;;;;;;15.60;3.63;;;;;16.40;100326.00;;;;10228247;28;21104;-80
2024/04/04 16:31:01;;;;;;;16.42;3.67;;;;;16.70;100347.00;;;;10243688;28;20255;-80
2024/04/04 16:36:04;;;;;;;18.02;3.72;;;;;16.50;100349.00;;;;10232161;28;20243;-80
2024/04/04 16:41:05;;;;;;;18.52;4.15;;;;;16.30;100362.00;;;;10235085;28;20228;-81
2024/04/04 16:46:06;;;;;;;19.27;4.28;;;;;16.10;100361.00;;;;10230296;28;20315;-80
2024/04/04 16:51:07;;;;;;;14.05;3.83;;;;;16.20;100368.00;;;;10239072;28;20216;-80
2024/04/04 16:56:09;;;;;;;16.30;3.45;;;;;16.50;100362.00;;;;10251811;28;20225;-80
2024/04/04 17:01:13;;;;;;;15.85;3.22;;;;;16.60;100370.00;;;;10230817;28;20235;-80
2024/04/04 17:06:15;;;;;;;14.35;3.65;;;;;16.50;100376.00;;;;10212334;28;20217;-80
2024/04/04 17:11:17;;;;;;;24.23;3.70;;;;;16.30;100373.00;;;;10227324;28;20216;-81
2024/04/04 17:16:17;;;;;;;16.42;3.72;;;;;16.00;100394.00;;;;10229645;28;20934;-81
2024/04/04 17:21:19;;;;;;;16.65;4.15;;;;;15.60;100392.00;;;;10227988;28;20221;-81
2024/04/04 17:26:20;;;;;;;17.83;4.25;;;;;15.50;100403.00;;;;10227851;28;20581;-81
2024/04/04 17:31:21;;;;;;;18.65;3.70;;;;;15.30;100402.00;;;;10227339;28;20227;-81
2024/04/04 17:36:21;;;;;;;15.13;4.22;;;;;15.30;100422.00;;;;10227922;28;21322;-81
2024/04/04 17:41:22;;;;;;;19.33;3.80;;;;;15.10;100417.00;;;;10230625;28;20221;-81
2024/04/04 17:46:24;;;;;;;13.43;3.67;;;;;15.00;100415.00;;;;10231015;28;20220;-81
2024/04/04 17:51:25;;;;;;;20.35;4.25;;;;;14.90;100424.00;;;;10213091;28;20969;-81
2024/04/04 17:56:26;;;;;;;20.50;4.07;;;;;14.80;100436.00;;;;10213325;28;20311;-80
2024/04/04 18:01:27;;;;;;;18.42;3.90;;;;;14.60;100444.00;;;;10224840;28;20225;-81
2024/04/04 18:06:28;;;;;;;15.48;4.00;;;;;14.40;100439.00;;;;10224755;28;20213;-81
2024/04/04 18:11:29;;;;;;;20.73;4.57;;;;;14.20;100446.00;;;;10227716;28;20303;-82
2024/04/04 18:16:31;;;;;;;19.75;4.50;;;;;14.00;100448.00;;;;10226948;28;21108;-82
2024/04/04 18:21:32;;;;;;;17.33;3.75;;;;;13.80;100446.00;;;;10249172;28;20279;-81
2024/04/04 18:26:34;;;;;;;17.30;4.35;;;;;13.60;100454.00;;;;10237002;28;20229;-81
2024/04/04 18:31:36;;;;;;;22.33;3.88;;;;;13.60;100458.00;;;;10234835;28;20228;-81
2024/04/04 18:36:37;;;;;;;22.50;4.25;;;;;13.50;100455.00;;;;10224905;28;20224;-79
2024/04/04 18:41:40;;;;;;;22.63;4.32;;;;;13.40;100461.00;;;;10210240;28;20279;-84
2024/04/04 18:46:41;;;;;;;16.35;4.45;;;;;13.20;100465.00;;;;10236579;28;20229;-80
2024/04/04 18:51:43;;;;;;;17.67;4.23;;;;;13.00;100466.00;;;;10246732;28;20228;-79
2024/04/04 18:56:43;;;;;;;25.58;4.75;;;;;12.90;100476.00;;;;10221451;28;20224;-81
2024/04/04 19:01:44;;;;;;;18.67;3.87;;;;;12.70;100473.00;;;;10230402;28;20692;-81
2024/04/04 19:06:45;;;;;;;21.50;5.13;;;;;12.60;100483.00;;;;10241610;28;20228;-81
2024/04/04 19:11:47;;;;;;;22.17;4.80;;;;;12.40;100481.00;;;;10250150;28;20228;-81
2024/04/04 19:16:48;;;;;;;24.27;5.27;;;;;12.30;100493.00;;;;10268882;28;20688;-80
2024/04/04 19:21:49;;;;;;;15.87;3.93;;;;;12.30;100493.00;;;;10234339;28;20220;-80
2024/04/04 19:26:51;;;;;;;17.87;3.93;;;;;12.30;100500.00;;;;10224827;28;20221;-80
2024/04/04 19:31:52;;;;;;;19.23;4.20;;;;;12.30;100491.00;;;;10246887;28;20267;-81
2024/04/04 19:36:53;;;;;;;16.20;3.37;;;;;12.20;100493.00;;;;10232528;28;20219;-80
2024/04/04 19:41:55;;;;;;;23.37;4.47;;;;;12.20;100496.00;;;;10242452;28;20247;-81
2024/04/04 19:46:56;;;;;;;18.50;4.43;;;;;12.30;100496.00;;;;10243473;28;20303;-82
2024/04/04 19:51:57;;;;;;;18.47;4.40;;;;;12.40;100491.00;;;;10231413;28;20227;-82
2024/04/04 19:56:59;;;;;;;16.13;3.97;;;;;12.50;100494.00;;;;10232291;28;20209;-81
2024/04/04 20:02:00;;;;;;;20.83;4.07;;;;;12.40;100501.00;;;;10232027;28;20247;-82
2024/04/04 20:07:01;;;;;;;19.57;5.10;;;;;12.20;100502.00;;;;10248616;28;20271;-82
2024/04/04 20:12:03;;;;;;;17.53;3.87;;;;;12.00;100498.00;;;;10231193;28;20218;-81
2024/04/04 20:17:04;;;;;;;23.43;4.60;;;;;12.00;100500.00;;;;10232488;28;20584;-81
2024/04/04 20:22:05;;;;;;;17.67;3.60;;;;;12.10;100493.00;;;;10248574;28;20219;-81
2024/04/04 20:27:06;;;;;;;18.77;4.20;;;;;12.20;100496.00;;;;10234501;28;20229;-82
2024/04/04 20:32:08;;;;;;;14.90;4.50;;;;;12.40;100503.00;;;;10238632;28;20628;-80
2024/04/04 20:37:09;;;;;;;19.47;4.50;;;;;12.50;100499.00;;;;10214691;28;20224;-81
2024/04/04 20:42:10;;;;;;;14.80;3.77;;;;;12.50;100502.00;;;;10242306;28;20955;-81
2024/04/04 20:47:11;;;;;;;22.20;4.43;;;;;12.50;100496.00;;;;10257463;28;25450;-80
2024/04/04 20:52:14;;;;;;;17.63;4.20;;;;;12.50;100501.00;;;;10229001;28;20295;-80
2024/04/04 20:57:15;;;;;;;19.27;4.60;;;;;12.50;100520.00;;;;10260563;28;20226;-80
2024/04/04 21:02:16;;;;;;;18.07;4.43;;;;;12.50;100523.00;;;;10233388;28;20288;-79
2024/04/04 21:07:18;;;;;;;17.70;4.00;;;;;12.50;100528.00;;;;10226745;28;20221;-80
2024/04/04 21:12:19;;;;;;;16.70;4.30;;;;;12.40;100521.00;;;;10229652;28;20692;-80
2024/04/04 21:17:20;;;;;;;18.30;4.20;;;;;12.40;100530.00;;;;10235915;28;20217;-79
2024/04/04 21:22:21;;;;;;;20.50;4.80;;;;;12.30;100530.00;;;;10224199;28;20239;-80
2024/04/04 21:27:23;;;;;;;20.83;4.77;;;;;12.30;100530.00;;;;10225989;28;20732;-80
2024/04/04 21:32:23;;;;;;;23.57;4.43;;;;;12.30;100528.00;;;;10238590;28;20225;-78
2024/04/04 21:37:24;;;;;;;21.73;4.17;;;;;12.30;100534.00;;;;10228904;28;20764;-78
2024/04/04 21:42:27;;;;;;;21.83;4.77;;;;;12.20;100532.00;;;;10225905;28;20233;-79
2024/04/04 21:47:28;;;;;;;18.13;4.70;;;;;12.20;100542.00;;;;10243271;28;20272;-79
2024/04/04 21:52:29;;;;;;;26.27;5.40;;;;;12.20;100534.00;;;;10240580;28;20220;-78
2024/04/04 21:57:30;;;;;;;15.00;4.13;;;;;12.20;100536.00;;;;10226782;28;20228;-78
2024/04/04 22:02:31;;;;;;;20.60;4.57;;;;;12.20;100552.00;;;;10255356;28;20231;-77
2024/04/04 22:07:32;;;;;;;20.27;5.63;;;;;12.20;100557.00;;;;10206727;28;20866;-78
2024/04/04 22:12:33;;;;;;;24.90;4.93;;;;;12.20;100550.00;;;;10225532;28;20224;-77
2024/04/04 22:17:34;;;;;;;23.07;4.07;;;;;12.20;100546.00;;;;10240827;28;20295;-78
2024/04/04 22:22:35;;;;;;;21.60;3.80;;;;;12.10;100555.00;;;;10212130;28;20228;-78
2024/04/04 22:27:36;;;;;;;24.00;5.23;;;;;12.10;100542.00;;;;10234415;28;20216;-78
2024/04/04 22:32:39;;;;;;;18.30;4.97;;;;;12.10;100542.00;;;;10230568;28;20573;-77
2024/04/04 22:37:40;;;;;;;16.07;4.07;;;;;12.10;100543.00;;;;10226361;28;20231;-80
2024/04/04 22:42:41;;;;;;;22.57;5.07;;;;;12.10;100547.00;;;;10227628;28;20229;-77
2024/04/04 22:47:42;;;;;;;18.63;4.40;;;;;12.10;100542.00;;;;10240987;28;20246;-78
2024/04/04 22:52:43;;;;;;;29.90;4.70;;;;;12.10;100548.00;;;;10238897;28;20232;-78
2024/04/04 22:57:49;;;;;;;17.53;4.40;;;;;12.10;100545.00;;;;10248011;28;20616;-78
2024/04/04 23:02:51;;;;;;;17.97;5.00;;;;;12.00;100557.00;;;;10231167;28;20220;-78
2024/04/04 23:07:53;;;;;;;19.60;4.53;;;;;12.00;100547.00;;;;10233957;28;20220;-79
2024/04/04 23:12:54;;;;;;;20.33;4.83;;;;;12.00;100542.00;;;;10251764;28;20972;-77
2024/04/04 23:17:55;;;;;;;19.17;4.90;;;;;12.00;100544.00;;;;10227488;28;20226;-78
2024/04/04 23:22:56;;;;;;;20.23;4.13;;;;;12.00;100524.00;;;;10241274;28;20813;-77
2024/04/04 23:27:57;;;;;;;20.27;4.60;;;;;12.10;100519.00;;;;10235590;28;20332;-77
2024/04/04 23:32:58;;;;;;;26.43;4.23;;;;;12.10;100503.00;;;;10244088;28;20660;-81
2024/04/04 23:37:59;;;;;;;21.70;4.33;;;;;12.10;100512.00;;;;10246385;28;20919;-78
2024/04/04 23:43:01;;;;;;;18.13;4.33;;;;;12.10;100509.00;;;;10249416;28;20920;-80
2024/04/04 23:48:02;;;;;;;22.13;6.17;;;;;12.10;100490.00;;;;10229816;28;20282;-79
2024/04/04 23:53:03;;;;;;;23.37;5.83;;;;;12.10;100471.00;;;;10232636;28;20216;-78
2024/04/04 23:58:04;;;;;;;18.87;5.50;;;;;12.10;100473.00;;;;10234190;28;20224;-77
